Time;durP1;ratioP1;P1;durP2;ratioP2;P2;SDS_P1;SDS_P2;PMS_P1;PMS_P2;Temp;Humidity;BMP_temperature;BMP_pressure;BME280_temperature;BME280_humidity;BME280_pressure;Samples;Min_cycle;Max_cycle;Signal;HPM_P1;HPM_P2
2022/03/31 00:02:09;;;;;;;15.57;13.80;;;9.50;60.50;;;;;;5051283;28;20229;-82
2022/03/31 00:04:37;;;;;;;15.67;14.00;;;9.50;60.30;;;;;;5051298;28;20258;-81
2022/03/31 00:07:04;;;;;;;16.27;14.20;;;9.50;60.10;;;;;;5048903;28;20712;-81
2022/03/31 00:09:31;;;;;;;16.73;14.93;;;9.50;59.80;;;;;;5049689;28;20234;-80
2022/03/31 00:11:59;;;;;;;17.67;14.87;;;9.50;59.70;;;;;;5050159;28;20234;-81
2022/03/31 00:14:25;;;;;;;16.93;15.13;;;9.50;61.10;;;;;;5050836;28;20201;-81
2022/03/31 00:16:52;;;;;;;18.07;15.33;;;9.50;59.70;;;;;;5043571;28;20208;-80
2022/03/31 00:19:18;;;;;;;17.00;15.30;;;9.50;59.20;;;;;;5051114;28;20215;-80
2022/03/31 00:32:41;;;;;;;18.23;14.97;;;9.40;61.50;;;;;;5050004;28;20191;-81
2022/03/31 00:35:08;;;;;;;18.03;15.30;;;9.40;61.70;;;;;;5040708;28;20212;-81
2022/03/31 00:37:34;;;;;;;18.27;16.37;;;9.40;61.10;;;;;;5039103;28;20205;-82
2022/03/31 00:40:01;;;;;;;18.33;16.30;;;9.40;62.40;;;;;;5043381;28;20692;-81
2022/03/31 00:42:28;;;;;;;19.53;17.10;;;9.40;61.40;;;;;;5047138;28;20208;-81
2022/03/31 00:44:55;;;;;;;20.33;17.17;;;9.30;62.60;;;;;;5051324;28;20604;-82
2022/03/31 00:47:22;;;;;;;19.53;17.43;;;9.40;62.20;;;;;;5035935;28;20333;-81
2022/03/31 00:49:48;;;;;;;19.33;16.97;;;9.40;62.40;;;;;;5041220;28;20198;-82
2022/03/31 00:52:15;;;;;;;21.30;17.57;;;9.40;62.20;;;;;;5040256;28;20311;-81
2022/03/31 00:54:43;;;;;;;22.50;17.73;;;9.40;62.40;;;;;;5040800;28;20288;-80
2022/03/31 00:57:10;;;;;;;22.40;17.40;;;9.40;62.20;;;;;;5032928;28;20247;-80
2022/03/31 00:59:36;;;;;;;19.93;17.57;;;9.30;62.80;;;;;;5038225;28;20266;-81
2022/03/31 01:02:03;;;;;;;19.93;17.83;;;9.30;63.60;;;;;;5049144;28;20225;-80
2022/03/31 01:04:30;;;;;;;22.57;19.47;;;9.30;62.80;;;;;;5048632;28;20209;-81
2022/03/31 01:06:57;;;;;;;20.10;17.63;;;9.30;62.80;;;;;;5041936;28;20231;-81
2022/03/31 01:09:23;;;;;;;21.73;18.43;;;9.30;62.80;;;;;;5049059;28;20218;-80
2022/03/31 01:11:50;;;;;;;23.03;18.90;;;9.30;62.80;;;;;;5051062;28;20220;-80
2022/03/31 01:14:16;;;;;;;20.47;17.83;;;9.20;62.70;;;;;;5048121;28;20212;-81
2022/03/31 01:16:43;;;;;;;24.13;20.20;;;9.10;63.80;;;;;;5040887;28;20232;-81
2022/03/31 01:19:09;;;;;;;24.40;19.23;;;9.20;63.80;;;;;;5044389;28;20203;-81
2022/03/31 01:21:36;;;;;;;23.43;20.07;;;9.10;63.00;;;;;;5049309;28;20219;-81
2022/03/31 01:24:02;;;;;;;22.60;19.23;;;9.20;64.40;;;;;;5047779;28;20206;-81
2022/03/31 01:26:29;;;;;;;21.30;17.90;;;9.10;63.30;;;;;;5050949;28;20227;-81
2022/03/31 01:28:56;;;;;;;23.63;20.20;;;9.00;64.00;;;;;;5041577;28;20208;-81
2022/03/31 01:31:22;;;;;;;24.57;19.07;;;9.10;64.20;;;;;;5042072;28;20235;-81
2022/03/31 01:33:49;;;;;;;23.13;20.13;;;9.20;63.90;;;;;;5043587;28;20682;-81
2022/03/31 01:36:16;;;;;;;21.87;18.90;;;9.20;63.20;;;;;;5047657;28;20219;-81
2022/03/31 01:38:42;;;;;;;23.40;20.37;;;9.10;63.60;;;;;;5048895;28;20279;-81
2022/03/31 01:41:09;;;;;;;22.27;18.67;;;9.10;64.20;;;;;;5045183;28;20231;-81
2022/03/31 01:43:35;;;;;;;22.83;19.73;;;9.10;63.80;;;;;;5048171;28;20213;-81
2022/03/31 01:46:02;;;;;;;22.80;19.43;;;9.00;63.80;;;;;;5049143;28;20684;-81
2022/03/31 01:48:30;;;;;;;20.60;17.87;;;9.10;64.70;;;;;;5051374;23;20248;-84
2022/03/31 01:50:57;;;;;;;24.97;20.00;;;9.00;64.70;;;;;;5035581;28;20220;-81
2022/03/31 01:53:23;;;;;;;22.50;19.47;;;9.00;64.50;;;;;;5034456;28;20303;-79
2022/03/31 01:55:50;;;;;;;23.83;19.63;;;8.90;64.70;;;;;;5031854;28;20204;-81
2022/03/31 01:58:17;;;;;;;22.47;19.13;;;8.80;64.50;;;;;;5033497;28;20212;-79
2022/03/31 02:00:44;;;;;;;24.23;19.43;;;8.90;66.20;;;;;;5043035;28;20246;-81
2022/03/31 02:03:10;;;;;;;22.80;19.23;;;8.80;65.10;;;;;;5045854;28;20291;-81
2022/03/31 02:05:37;;;;;;;24.87;19.93;;;8.80;65.40;;;;;;5038523;28;20212;-81
2022/03/31 02:08:03;;;;;;;23.70;19.27;;;8.60;65.60;;;;;;5031970;28;20239;-81
2022/03/31 02:10:30;;;;;;;25.17;19.50;;;8.60;66.80;;;;;;5033011;28;20222;-81
2022/03/31 02:12:57;;;;;;;24.47;20.07;;;8.60;66.80;;;;;;5041676;28;20242;-82
2022/03/31 02:15:24;;;;;;;24.53;20.17;;;8.60;66.80;;;;;;5039078;28;20212;-80
2022/03/31 02:17:50;;;;;;;23.40;19.70;;;8.50;66.20;;;;;;5050909;28;20291;-81
2022/03/31 02:20:17;;;;;;;23.77;18.63;;;8.50;66.70;;;;;;5032892;28;20219;-81
2022/03/31 02:22:44;;;;;;;25.13;19.33;;;8.50;66.70;;;;;;5038021;28;20214;-81
2022/03/31 02:25:11;;;;;;;22.07;18.40;;;8.60;66.80;;;;;;5038819;28;20303;-81
2022/03/31 02:27:37;;;;;;;24.20;20.90;;;8.70;66.00;;;;;;5014669;28;20227;-81
2022/03/31 02:30:04;;;;;;;24.20;19.63;;;8.70;66.40;;;;;;5037464;28;20219;-80
2022/03/31 02:32:30;;;;;;;22.40;19.03;;;8.60;65.50;;;;;;5037615;28;20211;-80
2022/03/31 02:34:57;;;;;;;22.50;19.30;;;8.50;66.20;;;;;;5023219;28;20289;-81
2022/03/31 02:37:23;;;;;;;24.37;20.40;;;8.50;66.40;;;;;;5048056;28;20222;-80
2022/03/31 02:39:50;;;;;;;26.57;20.03;;;8.50;66.70;;;;;;5032744;28;20234;-81
2022/03/31 02:42:17;;;;;;;23.93;19.03;;;8.60;66.20;;;;;;5046054;28;20206;-81
2022/03/31 02:44:44;;;;;;;26.93;20.37;;;8.60;66.80;;;;;;5039179;28;20205;-87
2022/03/31 02:47:10;;;;;;;25.83;20.60;;;8.60;66.00;;;;;;5051502;28;20233;-81
2022/03/31 02:49:37;;;;;;;24.43;19.37;;;8.70;66.90;;;;;;5038875;28;20230;-80
2022/03/31 02:52:03;;;;;;;23.60;19.73;;;8.60;66.00;;;;;;5032459;28;20298;-80
2022/03/31 02:57:14;;;;;;;22.27;18.83;;;8.70;65.60;;;;;;5032835;28;20282;-80
2022/03/31 02:59:40;;;;;;;24.37;20.03;;;8.70;65.40;;;;;;5036341;28;20667;-80
2022/03/31 03:02:07;;;;;;;24.00;18.83;;;8.70;65.40;;;;;;5033823;28;20210;-80
2022/03/31 03:04:34;;;;;;;26.90;20.70;;;8.60;66.50;;;;;;5030794;28;20285;-82
2022/03/31 03:07:00;;;;;;;26.47;19.73;;;8.60;65.50;;;;;;5034198;28;20228;-81
2022/03/31 03:09:27;;;;;;;25.00;19.53;;;8.60;65.70;;;;;;5032673;28;20255;-82
2022/03/31 03:11:53;;;;;;;23.43;19.00;;;8.60;65.90;;;;;;5033481;28;20732;-81
2022/03/31 03:14:21;;;;;;;23.73;18.80;;;8.70;66.30;;;;;;5050015;28;20246;-81
2022/03/31 03:16:47;;;;;;;24.10;19.20;;;8.70;66.80;;;;;;5049469;28;20252;-81
2022/03/31 03:19:14;;;;;;;23.37;18.77;;;8.70;65.00;;;;;;5050300;28;20226;-82
2022/03/31 03:21:40;;;;;;;21.87;18.57;;;8.70;64.70;;;;;;5035132;28;20214;-81
2022/03/31 03:24:07;;;;;;;23.43;17.77;;;8.60;64.80;;;;;;5045164;28;20207;-82
2022/03/31 03:26:33;;;;;;;22.73;18.40;;;8.60;65.10;;;;;;5034262;28;20660;-81
2022/03/31 03:29:00;;;;;;;23.63;19.77;;;8.70;65.80;;;;;;5053575;28;20649;-81
2022/03/31 03:31:26;;;;;;;26.10;19.83;;;8.70;66.10;;;;;;5032994;28;20286;-81
2022/03/31 03:33:53;;;;;;;24.70;18.80;;;8.70;64.80;;;;;;5036911;28;20289;-82
2022/03/31 03:36:19;;;;;;;22.30;18.30;;;8.60;64.80;;;;;;5038928;28;20548;-81
2022/03/31 03:38:46;;;;;;;21.73;17.93;;;8.60;64.80;;;;;;5035165;28;20208;-81
2022/03/31 03:41:12;;;;;;;25.80;19.10;;;8.50;65.30;;;;;;5043121;28;20212;-81
2022/03/31 03:43:39;;;;;;;21.67;18.10;;;8.40;65.50;;;;;;5048167;28;20736;-82
2022/03/31 03:46:05;;;;;;;24.03;19.20;;;8.40;67.00;;;;;;5037226;28;20196;-81
2022/03/31 03:48:32;;;;;;;25.40;20.70;;;8.40;66.60;;;;;;5031176;28;20434;-81
2022/03/31 03:50:58;;;;;;;21.80;17.87;;;8.20;66.30;;;;;;5046088;28;20465;-81
2022/03/31 03:53:25;;;;;;;25.47;18.93;;;8.30;66.90;;;;;;5044189;28;20754;-81
2022/03/31 03:55:51;;;;;;;22.60;18.73;;;8.40;66.60;;;;;;5031137;28;20555;-81
2022/03/31 03:58:18;;;;;;;22.77;18.53;;;8.40;66.20;;;;;;5031775;28;20226;-81
2022/03/31 04:00:44;;;;;;;22.27;17.43;;;8.40;65.50;;;;;;5039915;28;20301;-81
2022/03/31 04:03:11;;;;;;;26.03;18.70;;;8.40;65.50;;;;;;5041396;28;20294;-80
2022/03/31 04:05:38;;;;;;;23.87;19.17;;;8.40;65.70;;;;;;5034607;28;20210;-80
2022/03/31 04:08:04;;;;;;;26.30;19.13;;;8.30;65.80;;;;;;5030146;28;20269;-83
2022/03/31 04:10:31;;;;;;;25.53;19.20;;;8.30;66.50;;;;;;5036038;28;20646;-81
2022/03/31 04:12:57;;;;;;;21.07;17.87;;;8.40;66.60;;;;;;5040281;28;20286;-80
2022/03/31 04:15:24;;;;;;;28.10;21.50;;;8.30;66.10;;;;;;5029381;28;20245;-82
2022/03/31 04:17:50;;;;;;;25.00;18.87;;;8.40;66.90;;;;;;5032793;28;20534;-82
2022/03/31 04:20:17;;;;;;;24.60;18.97;;;8.40;65.70;;;;;;5020758;28;20700;-81
2022/03/31 04:22:43;;;;;;;25.37;18.90;;;8.30;66.10;;;;;;5021324;28;20217;-81
2022/03/31 04:25:10;;;;;;;24.73;19.83;;;8.40;66.60;;;;;;5048146;28;20633;-81
2022/03/31 04:27:36;;;;;;;27.77;19.53;;;8.30;66.00;;;;;;5031247;28;20249;-80
2022/03/31 04:30:03;;;;;;;25.17;19.80;;;8.40;66.10;;;;;;5030758;28;20227;-81
2022/03/31 04:32:30;;;;;;;27.73;19.60;;;8.50;66.50;;;;;;5042798;28;20249;-81
2022/03/31 04:34:56;;;;;;;28.83;20.77;;;8.50;65.20;;;;;;5028784;28;20207;-80
2022/03/31 04:37:22;;;;;;;27.53;20.83;;;8.50;65.40;;;;;;5029114;28;20216;-81
2022/03/31 04:39:49;;;;;;;28.07;20.67;;;8.50;65.80;;;;;;5031772;28;20729;-80
2022/03/31 04:42:15;;;;;;;25.90;20.13;;;8.40;66.60;;;;;;5035614;28;20595;-80
2022/03/31 04:44:42;;;;;;;27.80;20.33;;;8.30;65.60;;;;;;5031776;28;20207;-81
2022/03/31 04:47:11;;;;;;;25.97;20.00;;;8.30;66.50;;;;;;5037701;28;20269;-81
2022/03/31 04:49:38;;;;;;;24.17;18.87;;;8.40;66.70;;;;;;5045325;28;20949;-81
2022/03/31 04:52:04;;;;;;;28.57;21.40;;;8.30;66.50;;;;;;5028281;28;20262;-81
2022/03/31 04:54:31;;;;;;;30.13;22.87;;;8.30;66.50;;;;;;5037617;28;20281;-81
2022/03/31 04:56:57;;;;;;;30.23;22.43;;;8.30;66.50;;;;;;5033391;28;20207;-81
2022/03/31 04:59:24;;;;;;;31.43;21.50;;;8.30;66.50;;;;;;5030946;28;20226;-82
2022/03/31 05:01:50;;;;;;;31.27;23.47;;;8.30;66.50;;;;;;5031713;28;20202;-82
2022/03/31 05:04:17;;;;;;;30.20;23.33;;;8.30;66.40;;;;;;5041203;28;20202;-84
2022/03/31 05:06:43;;;;;;;30.23;21.67;;;8.50;66.20;;;;;;5032337;28;20203;-83
2022/03/31 05:09:10;;;;;;;29.40;22.97;;;8.50;66.40;;;;;;5027679;28;20242;-82
2022/03/31 05:11:36;;;;;;;26.70;21.90;;;8.50;66.70;;;;;;5031203;28;20311;-82
2022/03/31 05:14:03;;;;;;;32.10;24.27;;;8.50;65.30;;;;;;5029896;28;20203;-82
2022/03/31 05:16:29;;;;;;;32.00;21.83;;;8.50;65.30;;;;;;5029456;28;20211;-82
2022/03/31 05:18:56;;;;;;;29.57;22.97;;;8.50;65.80;;;;;;5029267;28;20272;-82
2022/03/31 05:21:22;;;;;;;32.27;23.10;;;8.40;65.70;;;;;;5031353;28;20303;-83
2022/03/31 05:23:49;;;;;;;30.83;22.90;;;8.40;66.50;;;;;;5027461;28;20235;-82
2022/03/31 05:26:15;;;;;;;29.33;22.73;;;8.40;66.20;;;;;;5022666;28;20291;-82
2022/03/31 05:28:42;;;;;;;29.43;22.23;;;8.40;66.30;;;;;;5034735;28;20319;-83
2022/03/31 05:31:08;;;;;;;32.07;23.47;;;8.50;66.70;;;;;;5044023;28;20230;-83
2022/03/31 05:33:36;;;;;;;32.17;24.23;;;8.50;66.70;;;;;;5034244;28;20202;-86
2022/03/31 05:36:02;;;;;;;33.30;24.23;;;8.40;66.70;;;;;;5041996;28;20226;-80
2022/03/31 05:38:29;;;;;;;32.77;24.33;;;8.50;66.70;;;;;;5037734;28;20225;-82
2022/03/31 05:40:55;;;;;;;33.43;24.47;;;8.50;65.50;;;;;;5038657;28;20227;-82
2022/03/31 05:43:22;;;;;;;32.27;24.20;;;8.60;66.80;;;;;;5029110;28;20195;-81
2022/03/31 05:45:49;;;;;;;32.63;24.33;;;8.60;65.90;;;;;;5039372;28;20687;-87
2022/03/31 05:48:15;;;;;;;40.03;24.43;;;8.50;66.10;;;;;;5037514;28;20276;-91
2022/03/31 05:50:42;;;;;;;35.83;24.80;;;8.60;65.90;;;;;;5035050;28;20228;-92
2022/03/31 05:53:08;;;;;;;30.07;23.03;;;8.60;65.80;;;;;;5037535;28;20247;-92
2022/03/31 05:55:36;;;;;;;33.37;23.53;;;8.50;66.70;;;;;;5031933;28;20213;-81
2022/03/31 05:58:03;;;;;;;33.90;24.30;;;8.50;66.40;;;;;;5026363;28;20204;-87
2022/03/31 06:00:30;;;;;;;35.47;23.90;;;8.50;66.30;;;;;;5042177;28;20208;-81
2022/03/31 06:02:57;;;;;;;32.97;23.80;;;8.60;66.70;;;;;;5031668;28;20685;-86
2022/03/31 06:05:24;;;;;;;34.43;24.30;;;8.60;65.70;;;;;;5046566;28;20356;-88
2022/03/31 06:07:51;;;;;;;32.97;23.33;;;8.60;66.00;;;;;;5019701;28;20212;-85
2022/03/31 06:10:18;;;;;;;35.00;24.83;;;8.60;66.20;;;;;;5025907;28;20310;-91
2022/03/31 06:12:44;;;;;;;35.07;24.23;;;8.60;66.80;;;;;;5026309;28;20207;-91
2022/03/31 06:15:11;;;;;;;33.00;24.07;;;8.70;66.40;;;;;;5029013;28;20204;-89
2022/03/31 06:17:37;;;;;;;30.57;22.70;;;8.70;65.90;;;;;;5044873;28;20235;-92
2022/03/31 06:20:04;;;;;;;33.27;23.47;;;8.80;65.70;;;;;;5023548;28;20308;-89
2022/03/31 06:22:30;;;;;;;33.17;23.40;;;8.70;66.00;;;;;;5030085;28;20205;-87
2022/03/31 06:24:57;;;;;;;33.57;24.73;;;8.70;66.50;;;;;;5035340;28;20240;-83
2022/03/31 06:27:23;;;;;;;38.37;25.43;;;8.70;66.90;;;;;;5027872;28;20291;-86
2022/03/31 06:29:52;;;;;;;35.00;24.50;;;8.80;65.90;;;;;;5043893;28;20231;-84
2022/03/31 06:32:19;;;;;;;34.77;24.07;;;8.80;66.10;;;;;;5028412;28;20340;-96
2022/03/31 06:34:45;;;;;;;34.87;25.77;;;8.80;65.70;;;;;;5026806;28;20226;-86
2022/03/31 06:37:13;;;;;;;35.17;25.77;;;8.80;65.80;;;;;;4915724;28;20239;-87
2022/03/31 06:39:39;;;;;;;35.47;25.33;;;8.80;66.20;;;;;;5029180;28;20240;-89
2022/03/31 06:42:06;;;;;;;36.77;26.23;;;8.70;65.90;;;;;;5043432;28;20222;-86
2022/03/31 06:47:13;;;;;;;37.60;25.27;;;8.80;66.00;;;;;;5030804;28;20223;-89
2022/03/31 06:49:39;;;;;;;33.57;24.80;;;8.80;66.50;;;;;;5036470;28;20278;-86
2022/03/31 06:52:06;;;;;;;30.97;23.27;;;8.90;67.80;;;;;;4332286;28;18512374;-85
2022/03/31 06:54:32;;;;;;;32.03;22.27;;;9.00;66.10;;;;;;5004612;28;20461;-87
2022/03/31 06:56:59;;;;;;;32.00;23.77;;;9.00;65.10;;;;;;4991701;28;20627;-86
2022/03/31 06:59:29;;;;;;;33.30;23.83;;;9.00;64.40;;;;;;4993399;28;20241;-84
2022/03/31 07:01:55;;;;;;;32.73;24.07;;;9.00;64.60;;;;;;4995426;28;20209;-88
2022/03/31 07:04:22;;;;;;;33.80;23.60;;;9.00;64.30;;;;;;4990507;28;20215;-83
2022/03/31 07:06:49;;;;;;;36.20;23.10;;;9.00;64.70;;;;;;4998028;28;20221;-87
2022/03/31 07:09:16;;;;;;;34.60;25.20;;;9.20;64.90;;;;;;4995608;28;20786;-87
2022/03/31 07:11:43;;;;;;;34.50;25.07;;;9.20;63.50;;;;;;4991389;28;20328;-86
2022/03/31 07:14:09;;;;;;;34.87;23.40;;;9.20;65.00;;;;;;4994355;28;20219;-88
2022/03/31 07:16:36;;;;;;;29.63;23.80;;;9.30;64.90;;;;;;4999180;28;20791;-86
2022/03/31 07:19:03;;;;;;;30.50;23.50;;;9.30;63.80;;;;;;4997615;28;20576;-85
2022/03/31 07:21:29;;;;;;;30.47;22.77;;;9.20;63.40;;;;;;4998345;28;20242;-81
2022/03/31 07:23:56;;;;;;;30.77;24.13;;;9.10;65.40;;;;;;4996719;28;20202;-83
2022/03/31 07:26:24;;;;;;;31.33;24.17;;;9.10;64.50;;;;;;4990541;28;20206;-84
2022/03/31 07:28:51;;;;;;;33.53;23.07;;;9.00;65.00;;;;;;5032851;23;20625;-83
2022/03/31 07:31:18;;;;;;;33.20;24.23;;;9.10;65.60;;;;;;5002696;28;20686;-82
2022/03/31 07:33:45;;;;;;;32.10;24.50;;;9.10;65.60;;;;;;5003360;28;20257;-83
2022/03/31 07:36:12;;;;;;;30.93;22.67;;;9.10;64.70;;;;;;5009048;28;20665;-84
2022/03/31 07:38:39;;;;;;;31.77;24.37;;;9.20;65.40;;;;;;5013436;28;20605;-83
2022/03/31 07:41:05;;;;;;;31.90;23.73;;;9.10;64.00;;;;;;4994123;28;20279;-81
2022/03/31 07:43:32;;;;;;;30.33;23.57;;;9.20;65.30;;;;;;4998910;28;20308;-82
2022/03/31 07:45:58;;;;;;;31.30;24.53;;;9.40;66.00;;;;;;4992633;28;20292;-84
2022/03/31 07:48:25;;;;;;;29.80;24.00;;;9.30;64.30;;;;;;5004577;28;20233;-85
2022/03/31 07:50:55;;;;;;;28.90;21.90;;;9.50;63.90;;;;;;4992645;28;20233;-86
2022/03/31 07:53:22;;;;;;;32.80;24.43;;;9.50;63.00;;;;;;5000036;28;20211;-85
2022/03/31 07:55:49;;;;;;;33.37;24.73;;;9.50;64.10;;;;;;4994236;28;20206;-84
2022/03/31 07:58:15;;;;;;;31.80;23.90;;;9.60;63.20;;;;;;4991495;28;20240;-84
2022/03/31 08:00:42;;;;;;;32.80;25.20;;;9.60;64.30;;;;;;4990026;28;20297;-83
2022/03/31 08:03:08;;;;;;;30.93;24.40;;;9.80;63.30;;;;;;4990627;28;20214;-83
2022/03/31 08:05:37;;;;;;;30.47;23.70;;;9.90;63.30;;;;;;4993457;28;20215;-81
2022/03/31 08:08:03;;;;;;;30.07;23.73;;;10.00;60.50;;;;;;4996079;28;20338;-81
2022/03/31 08:10:30;;;;;;;31.77;23.27;;;10.10;60.50;;;;;;4991358;28;20306;-81
2022/03/31 08:12:56;;;;;;;28.40;23.10;;;10.10;59.60;;;;;;4982100;28;20207;-81
2022/03/31 08:15:24;;;;;;;29.03;22.30;;;10.00;59.20;;;;;;4993901;28;20212;-81
2022/03/31 08:17:51;;;;;;;31.00;23.87;;;10.10;59.50;;;;;;4992668;28;20231;-81
2022/03/31 08:20:17;;;;;;;31.77;22.77;;;10.20;59.50;;;;;;5000494;23;20274;-85
2022/03/31 08:22:44;;;;;;;30.47;22.13;;;10.10;58.30;;;;;;4991258;28;20226;-85
2022/03/31 08:25:10;;;;;;;27.07;23.00;;;10.20;59.10;;;;;;4990288;28;20215;-85
2022/03/31 08:27:37;;;;;;;29.37;23.53;;;10.40;59.20;;;;;;4993316;28;20220;-84
2022/03/31 08:30:03;;;;;;;28.87;22.93;;;10.40;58.70;;;;;;4986219;28;20246;-84
2022/03/31 08:32:34;;;;;;;28.00;21.80;;;10.40;59.40;;;;;;4992084;28;20746;-86
2022/03/31 08:35:01;;;;;;;28.17;21.93;;;10.50;59.20;;;;;;4989741;28;20211;-89
2022/03/31 08:37:27;;;;;;;26.80;20.80;;;10.30;58.80;;;;;;4994140;28;20311;-83
2022/03/31 08:39:55;;;;;;;29.43;23.17;;;10.30;58.10;;;;;;4989401;28;20313;-93
2022/03/31 08:42:22;;;;;;;27.17;21.57;;;10.40;58.20;;;;;;4993596;28;20215;-89
2022/03/31 08:44:48;;;;;;;27.03;20.73;;;10.50;58.80;;;;;;4997296;28;20298;-89
2022/03/31 08:47:15;;;;;;;25.80;20.40;;;10.60;56.40;;;;;;4994349;28;20310;-92
2022/03/31 08:49:43;;;;;;;23.73;18.40;;;10.70;56.00;;;;;;4992446;28;20250;-91
2022/03/31 08:54:40;;;;;;;25.17;19.50;;;10.80;54.80;;;;;;5007236;28;20235;-87
2022/03/31 08:57:06;;;;;;;25.07;19.47;;;10.90;55.30;;;;;;5012081;28;20318;-85
2022/03/31 08:59:33;;;;;;;27.13;19.83;;;10.90;56.00;;;;;;5010449;28;20317;-85
2022/03/31 09:01:59;;;;;;;22.57;19.10;;;11.00;53.80;;;;;;5013110;28;20198;-85
2022/03/31 09:04:26;;;;;;;26.37;20.00;;;11.20;54.90;;;;;;5020142;28;20651;-86
2022/03/31 09:06:54;;;;;;;23.70;19.80;;;11.00;55.80;;;;;;5014381;28;20598;-86
2022/03/31 09:09:20;;;;;;;25.93;19.77;;;10.90;52.90;;;;;;5015611;28;20258;-86
2022/03/31 09:11:47;;;;;;;25.73;19.87;;;11.00;55.70;;;;;;5012708;28;20562;-87
2022/03/31 09:14:14;;;;;;;24.20;19.43;;;11.00;54.40;;;;;;5018059;28;20200;-87
2022/03/31 09:16:40;;;;;;;24.20;19.03;;;11.00;53.10;;;;;;5020277;28;20224;-88
2022/03/31 09:19:07;;;;;;;25.90;19.03;;;11.10;52.70;;;;;;5008852;28;20224;-88
2022/03/31 09:21:35;;;;;;;24.93;18.83;;;11.10;54.50;;;;;;5009008;28;20791;-79
2022/03/31 09:24:01;;;;;;;24.57;19.57;;;11.00;54.70;;;;;;5009084;28;20203;-89
2022/03/31 09:26:31;;;;;;;22.27;17.73;;;11.10;54.40;;;;;;5019319;28;20228;-87
2022/03/31 09:28:58;;;;;;;21.17;17.27;;;11.00;53.80;;;;;;5015121;28;20307;-84
2022/03/31 09:31:24;;;;;;;22.13;18.07;;;10.90;52.90;;;;;;5011028;28;20204;-89
2022/03/31 09:33:51;;;;;;;21.07;16.47;;;10.90;55.40;;;;;;5004480;28;20227;-86
2022/03/31 09:36:17;;;;;;;24.63;19.23;;;11.00;56.30;;;;;;5005858;28;20219;-83
2022/03/31 09:38:46;;;;;;;27.17;20.27;;;11.00;55.20;;;;;;5011529;28;20233;-82
2022/03/31 09:41:12;;;;;;;23.17;18.53;;;11.00;57.30;;;;;;5020495;28;20211;-84
2022/03/31 09:43:40;;;;;;;22.57;19.00;;;11.00;54.80;;;;;;5002235;28;20207;-82
2022/03/31 09:46:06;;;;;;;22.93;17.10;;;10.80;53.70;;;;;;5020422;28;20314;-90
2022/03/31 09:48:33;;;;;;;24.33;18.60;;;10.80;54.00;;;;;;5012433;28;20640;-89
2022/03/31 09:51:04;;;;;;;24.33;18.63;;;10.90;54.70;;;;;;5006455;28;20293;-83
2022/03/31 09:53:34;;;;;;;25.73;19.70;;;10.80;53.60;;;;;;5006855;28;20211;-80
2022/03/31 09:56:01;;;;;;;29.03;20.30;;;10.50;53.30;;;;;;5008696;28;20573;-85
2022/03/31 09:58:27;;;;;;;26.20;19.50;;;10.40;53.80;;;;;;5007600;28;20200;-79
2022/03/31 10:00:54;;;;;;;26.53;19.37;;;10.50;56.80;;;;;;5009358;28;20258;-82
2022/03/31 10:03:24;;;;;;;24.30;19.33;;;10.40;55.80;;;;;;5012903;28;20644;-85
2022/03/31 10:05:50;;;;;;;26.47;20.13;;;10.50;54.60;;;;;;5009866;28;20246;-82
2022/03/31 10:08:17;;;;;;;26.77;20.03;;;10.70;56.90;;;;;;5011025;28;20934;-83
2022/03/31 10:10:46;;;;;;;27.37;19.37;;;10.70;54.10;;;;;;5020989;28;20202;-84
2022/03/31 10:13:13;;;;;;;27.07;19.13;;;10.40;53.90;;;;;;5012640;28;20218;-82
2022/03/31 10:15:39;;;;;;;24.87;18.53;;;10.50;54.50;;;;;;5023248;28;20229;-82
2022/03/31 10:18:06;;;;;;;26.13;19.90;;;10.60;54.80;;;;;;5029199;28;20207;-82
2022/03/31 10:20:32;;;;;;;26.43;19.07;;;10.70;55.10;;;;;;5012101;28;20337;-81
2022/03/31 10:25:45;;;;;;;23.10;19.00;;;10.60;51.80;;;;;;5010033;28;20233;-80
2022/03/31 10:28:11;;;;;;;24.57;18.60;;;10.60;53.80;;;;;;5006786;28;20577;-86
2022/03/31 10:30:38;;;;;;;25.63;18.47;;;10.70;52.00;;;;;;5013974;28;20549;-87
2022/03/31 10:33:04;;;;;;;26.60;18.77;;;10.70;54.30;;;;;;5014559;28;20235;-87
2022/03/31 10:35:31;;;;;;;23.07;18.27;;;10.70;54.10;;;;;;5016028;28;20251;-90
2022/03/31 10:37:57;;;;;;;24.37;18.40;;;10.70;54.10;;;;;;5017366;28;20215;-90
2022/03/31 10:40:24;;;;;;;22.70;18.23;;;10.90;54.10;;;;;;5016849;28;20726;-89
2022/03/31 10:42:50;;;;;;;23.87;18.33;;;10.90;51.40;;;;;;5016364;28;20244;-89
2022/03/31 10:45:17;;;;;;;25.27;19.27;;;10.80;52.80;;;;;;5017110;28;20267;-88
2022/03/31 10:47:44;;;;;;;25.57;18.50;;;10.80;53.20;;;;;;5026762;28;20208;-82
2022/03/31 10:50:11;;;;;;;23.00;17.67;;;10.80;50.70;;;;;;5013961;28;20207;-83
2022/03/31 10:52:38;;;;;;;22.43;18.13;;;11.00;54.20;;;;;;5012721;28;20573;-81
2022/03/31 10:55:04;;;;;;;23.83;19.10;;;11.00;52.80;;;;;;5013475;28;20263;-80
2022/03/31 10:57:31;;;;;;;22.13;17.73;;;11.10;52.30;;;;;;5014504;28;20208;-83
2022/03/31 10:59:57;;;;;;;21.93;17.67;;;11.20;52.00;;;;;;5010435;28;20240;-79
2022/03/31 11:02:25;;;;;;;24.83;19.60;;;11.10;50.00;;;;;;5015387;28;20247;-83
2022/03/31 11:04:52;;;;;;;24.57;19.00;;;11.10;50.60;;;;;;5010718;28;20229;-88
2022/03/31 11:07:18;;;;;;;26.47;18.97;;;11.00;51.60;;;;;;5010038;28;20214;-89
2022/03/31 11:09:45;;;;;;;29.03;19.07;;;11.00;54.40;;;;;;5011451;28;20210;-93
2022/03/31 11:12:12;;;;;;;25.13;18.23;;;11.20;52.90;;;;;;5000772;28;20209;-92
2022/03/31 11:14:38;;;;;;;22.80;17.47;;;11.20;53.60;;;;;;5000642;28;20197;-87
2022/03/31 11:17:05;;;;;;;24.13;18.60;;;11.20;54.20;;;;;;5014862;28;20291;-88
2022/03/31 11:19:31;;;;;;;24.30;17.80;;;11.30;55.30;;;;;;5014113;28;20291;-86
2022/03/31 11:21:58;;;;;;;22.60;17.30;;;11.20;53.70;;;;;;5003192;28;20208;-83
2022/03/31 11:24:24;;;;;;;21.67;16.80;;;11.20;51.00;;;;;;5006030;28;20207;-89
2022/03/31 11:26:54;;;;;;;20.63;16.67;;;11.10;50.70;;;;;;5005295;28;20213;-87
2022/03/31 11:29:24;;;;;;;23.23;18.60;;;11.20;53.10;;;;;;5004161;28;20248;-92
2022/03/31 11:31:50;;;;;;;29.13;20.10;;;11.10;50.60;;;;;;5003967;28;20295;-91
2022/03/31 11:34:17;;;;;;;23.50;19.10;;;11.20;53.10;;;;;;5000642;28;20557;-90
2022/03/31 11:36:44;;;;;;;24.43;18.50;;;11.20;53.40;;;;;;5003920;28;20212;-90
2022/03/31 11:39:10;;;;;;;22.93;18.47;;;11.10;50.70;;;;;;5010595;28;20232;-93
2022/03/31 11:41:37;;;;;;;22.87;17.67;;;11.00;51.40;;;;;;5013205;28;20216;-92
2022/03/31 11:44:04;;;;;;;25.33;17.87;;;11.20;51.00;;;;;;5010189;28;20202;-88
2022/03/31 11:46:30;;;;;;;24.20;18.37;;;11.00;51.90;;;;;;5009981;28;20207;-91
2022/03/31 11:48:57;;;;;;;24.77;18.90;;;11.10;54.50;;;;;;5015147;28;20208;-90
2022/03/31 11:51:24;;;;;;;22.97;18.33;;;11.10;52.50;;;;;;5009394;28;20216;-78
2022/03/31 11:53:52;;;;;;;24.47;18.67;;;11.00;52.60;;;;;;5013570;28;20201;-90
2022/03/31 11:56:21;;;;;;;24.50;19.10;;;11.10;54.50;;;;;;5004232;28;20206;-92
2022/03/31 11:58:48;;;;;;;26.43;19.50;;;11.10;53.30;;;;;;4997403;28;20205;-92
2022/03/31 12:01:14;;;;;;;25.23;18.50;;;11.20;54.00;;;;;;5010999;28;20271;-92
2022/03/31 12:03:41;;;;;;;24.73;18.90;;;11.40;52.70;;;;;;5015043;28;20242;-92
2022/03/31 12:06:07;;;;;;;25.23;18.77;;;11.30;54.10;;;;;;5005407;28;20232;-92
2022/03/31 12:08:34;;;;;;;24.70;18.17;;;11.10;51.10;;;;;;5015343;28;20204;-94
2022/03/31 12:11:01;;;;;;;26.40;19.50;;;11.10;53.60;;;;;;5008428;28;20208;-93
2022/03/31 12:13:27;;;;;;;24.93;18.77;;;11.30;55.90;;;;;;5014736;28;20235;-92
2022/03/31 12:15:55;;;;;;;22.90;17.80;;;11.30;52.60;;;;;;5021276;28;20223;-91
2022/03/31 12:18:26;;;;;;;23.43;17.60;;;11.50;53.10;;;;;;5024458;28;20247;-92
2022/03/31 12:20:52;;;;;;;24.60;18.30;;;11.60;50.90;;;;;;5011926;28;20256;-92
2022/03/31 12:23:19;;;;;;;23.50;17.03;;;11.50;53.30;;;;;;5011258;28;20268;-92
2022/03/31 12:25:46;;;;;;;21.20;17.00;;;11.70;52.20;;;;;;5017417;28;20611;-92
2022/03/31 12:28:12;;;;;;;22.50;17.37;;;11.50;50.40;;;;;;5015990;28;20209;-94
2022/03/31 12:30:39;;;;;;;22.80;16.90;;;11.60;50.50;;;;;;5012878;28;20216;-93
2022/03/31 12:33:05;;;;;;;22.87;17.03;;;11.50;50.40;;;;;;5009732;28;20574;-92
2022/03/31 12:35:33;;;;;;;22.77;17.07;;;11.40;50.80;;;;;;5009118;28;20311;-93
2022/03/31 12:37:59;;;;;;;19.40;15.93;;;11.30;53.10;;;;;;5010086;28;20225;-94
2022/03/31 12:40:26;;;;;;;20.30;16.00;;;11.50;51.30;;;;;;5011137;28;20561;-87
2022/03/31 12:42:52;;;;;;;20.40;16.00;;;11.70;50.40;;;;;;5009502;28;20236;-87
2022/03/31 12:45:34;;;;;;;19.13;14.57;;;12.10;49.70;;;;;;5004752;28;20857;-87
2022/03/31 12:48:01;;;;;;;19.43;14.83;;;12.30;49.40;;;;;;5016465;28;20212;-90
2022/03/31 12:50:28;;;;;;;19.27;13.97;;;12.40;46.70;;;;;;5006737;28;20289;-88
2022/03/31 12:52:55;;;;;;;17.00;13.17;;;12.20;48.00;;;;;;5002533;28;20206;-86